Time;durP1;ratioP1;P1;durP2;ratioP2;P2;SDS_P1;SDS_P2;PMS_P1;PMS_P2;Temp;Humidity;BMP_temperature;BMP_pressure;BME280_temperature;BME280_humidity;BME280_pressure;Samples;Min_cycle;Max_cycle;Signal;HPM_P1;HPM_P2
2022/09/26 00:01:20;;;;;;;8.48;2.20;;;15.00;99.90;;;;;;5056994;28;20040;-69
2022/09/26 00:03:48;;;;;;;5.57;1.65;;;15.00;99.90;;;;;;5056079;28;20032;-69
2022/09/26 00:06:16;;;;;;;3.30;0.85;;;15.00;99.90;;;;;;5058356;28;20024;-68
2022/09/26 00:08:42;;;;;;;8.90;1.75;;;15.00;99.90;;;;;;5057623;28;20091;-68
2022/09/26 00:11:10;;;;;;;3.08;1.55;;;15.00;99.90;;;;;;5057010;28;20114;-68
2022/09/26 00:13:38;;;;;;;5.43;1.95;;;15.00;99.90;;;;;;5057015;28;20025;-69
2022/09/26 00:16:05;;;;;;;5.53;2.15;;;15.00;99.90;;;;;;5057195;28;20070;-69
2022/09/26 00:18:30;;;;;;;5.25;1.25;;;14.90;99.90;;;;;;5057450;28;20470;-68
2022/09/26 00:21:07;;;;;;;5.07;1.48;;;15.00;99.90;;;;;;5055318;28;20032;-69
2022/09/26 00:23:33;;;;;;;2.78;0.90;;;15.00;99.90;;;;;;5056544;28;20025;-69
2022/09/26 00:25:59;;;;;;;4.32;1.52;;;15.00;99.90;;;;;;5055704;28;20021;-69
2022/09/26 00:28:24;;;;;;;5.38;2.08;;;15.00;99.90;;;;;;5056365;28;20024;-68
2022/09/26 00:30:50;;;;;;;6.95;1.63;;;15.00;99.90;;;;;;5057757;28;20033;-68
2022/09/26 00:33:16;;;;;;;5.13;1.17;;;15.00;99.90;;;;;;5058366;28;20103;-68
2022/09/26 00:35:52;;;;;;;6.07;1.65;;;15.00;99.90;;;;;;5061184;28;20125;-69
2022/09/26 00:38:18;;;;;;;6.82;1.20;;;15.00;99.90;;;;;;5058184;28;20074;-68
2022/09/26 00:40:45;;;;;;;1.88;1.05;;;15.00;99.90;;;;;;5056711;28;20021;-69
2022/09/26 00:43:37;;;;;;;7.38;2.00;;;15.00;99.90;;;;;;5057857;28;20052;-69
2022/09/26 00:46:24;;;;;;;4.95;1.45;;;15.00;99.90;;;;;;5055980;28;20067;-68
2022/09/26 00:49:03;;;;;;;5.00;1.40;;;15.00;99.90;;;;;;5060557;28;20033;-69
2022/09/26 00:51:29;;;;;;;3.78;1.27;;;15.00;99.90;;;;;;5059922;28;20017;-67
2022/09/26 00:53:55;;;;;;;6.38;1.25;;;15.10;99.90;;;;;;5058782;28;20459;-68
2022/09/26 00:56:29;;;;;;;2.60;1.08;;;15.10;99.90;;;;;;5058032;28;20044;-67
2022/09/26 00:59:12;;;;;;;5.90;1.52;;;15.10;99.90;;;;;;5064484;28;20043;-67
2022/09/26 01:01:37;;;;;;;5.80;0.90;;;15.10;99.90;;;;;;5057074;28;20649;-68
2022/09/26 01:04:05;;;;;;;6.85;1.52;;;15.10;99.90;;;;;;5056426;28;20136;-68
2022/09/26 01:06:31;;;;;;;8.35;1.15;;;15.10;99.90;;;;;;5064671;28;20024;-68
2022/09/26 01:09:00;;;;;;;10.55;1.80;;;15.10;99.90;;;;;;5055224;28;20033;-68
2022/09/26 01:11:30;;;;;;;5.43;1.63;;;15.10;99.90;;;;;;5060620;28;20068;-68
2022/09/26 01:13:57;;;;;;;7.72;2.95;;;15.10;99.90;;;;;;5060378;28;20024;-68
2022/09/26 01:16:23;;;;;;;8.90;2.70;;;15.10;99.90;;;;;;5056531;28;20029;-68
2022/09/26 01:18:50;;;;;;;13.68;4.20;;;15.10;99.90;;;;;;5059522;28;20032;-67
2022/09/26 01:21:33;;;;;;;13.23;3.03;;;15.10;99.90;;;;;;5053021;28;20037;-68
2022/09/26 01:24:11;;;;;;;7.40;1.92;;;15.00;99.90;;;;;;5053738;28;20017;-69
2022/09/26 01:26:59;;;;;;;7.50;2.30;;;15.00;99.90;;;;;;5050860;28;20017;-69
2022/09/26 01:29:50;;;;;;;6.78;1.65;;;14.90;99.90;;;;;;5052092;28;20091;-69
2022/09/26 01:32:49;;;;;;;6.45;2.15;;;14.80;99.90;;;;;;5054411;28;20090;-69
2022/09/26 01:35:35;;;;;;;5.95;1.85;;;14.70;99.90;;;;;;5053794;28;20032;-69
2022/09/26 01:38:08;;;;;;;6.85;2.00;;;14.50;99.90;;;;;;5052462;28;20517;-68
2022/09/26 01:40:54;;;;;;;5.18;1.67;;;14.50;99.90;;;;;;5053943;28;20049;-68
2022/09/26 01:43:44;;;;;;;3.65;1.10;;;14.50;99.90;;;;;;5054044;28;20025;-68
2022/09/26 01:46:31;;;;;;;5.50;1.42;;;14.40;99.90;;;;;;5053926;28;20025;-68
2022/09/26 01:49:10;;;;;;;4.90;1.30;;;14.40;99.90;;;;;;5053598;28;20040;-68
2022/09/26 01:51:50;;;;;;;5.25;1.27;;;14.40;99.90;;;;;;5053383;28;20528;-68
2022/09/26 01:54:24;;;;;;;6.10;1.52;;;14.40;99.90;;;;;;5053322;28;20032;-68
2022/09/26 01:56:52;;;;;;;5.18;1.30;;;14.40;99.90;;;;;;5053974;28;20033;-68
2022/09/26 01:59:38;;;;;;;5.15;1.30;;;14.50;99.90;;;;;;5052590;28;20037;-69
2022/09/26 02:02:11;;;;;;;3.47;1.02;;;14.50;99.90;;;;;;5054085;28;20055;-68
2022/09/26 02:04:41;;;;;;;5.38;1.90;;;14.50;99.90;;;;;;5053986;28;20021;-68
2022/09/26 02:07:17;;;;;;;4.95;1.38;;;14.60;99.90;;;;;;5053864;28;20052;-68
2022/09/26 02:10:03;;;;;;;3.63;1.33;;;14.60;99.90;;;;;;5052992;28;20025;-69
2022/09/26 02:12:35;;;;;;;2.78;0.93;;;14.60;99.90;;;;;;5053447;28;20025;-69
2022/09/26 02:15:06;;;;;;;;;;;14.70;99.90;;;;;;5054070;28;20033;-68
2022/09/26 02:17:39;;;;;;;7.30;1.40;;;14.70;99.90;;;;;;5053695;28;19905;-68
2022/09/26 02:20:10;;;;;;;9.90;1.88;;;14.80;99.90;;;;;;5053423;28;20463;-68
2022/09/26 02:22:35;;;;;;;5.88;1.27;;;14.70;99.90;;;;;;5053416;28;20029;-68
2022/09/26 02:25:03;;;;;;;3.35;0.90;;;14.80;99.90;;;;;;5053536;28;20108;-68
2022/09/26 02:27:28;;;;;;;3.88;1.10;;;14.70;99.90;;;;;;5053568;28;20028;-68
2022/09/26 02:29:54;;;;;;;4.90;1.35;;;14.60;99.90;;;;;;5053915;28;20037;-68
2022/09/26 02:32:25;;;;;;;10.07;1.40;;;14.40;99.90;;;;;;5053501;28;20343;-68
2022/09/26 02:34:51;;;;;;;2.22;1.10;;;14.30;99.90;;;;;;5053501;28;20021;-68
2022/09/26 02:37:19;;;;;;;4.38;1.27;;;14.30;99.90;;;;;;5052461;28;20033;-68
2022/09/26 02:39:47;;;;;;;4.50;1.10;;;14.20;99.90;;;;;;5052668;28;20324;-68
2022/09/26 02:42:29;;;;;;;4.60;1.08;;;14.20;99.90;;;;;;5052801;28;20033;-67
2022/09/26 02:45:11;;;;;;;4.32;1.30;;;14.20;99.90;;;;;;5052781;28;20117;-68
2022/09/26 02:48:20;;;;;;;5.75;1.95;;;14.10;99.90;;;;;;5052594;28;20044;-68
2022/09/26 02:50:48;;;;;;;4.32;1.27;;;14.10;99.90;;;;;;5052542;28;20151;-68
2022/09/26 02:53:20;;;;;;;6.85;1.60;;;14.10;99.90;;;;;;5052187;28;20044;-67
2022/09/26 02:56:07;;;;;;;3.85;1.10;;;14.00;99.90;;;;;;5052795;28;20024;-68
2022/09/26 02:58:43;;;;;;;4.30;1.27;;;14.00;99.90;;;;;;5052507;28;20368;-68
2022/09/26 03:01:17;;;;;;;6.88;1.38;;;14.10;99.90;;;;;;5053019;28;20035;-69
2022/09/26 03:03:51;;;;;;;2.75;0.93;;;14.10;99.90;;;;;;5052634;28;20033;-69
2022/09/26 03:06:23;;;;;;;2.60;1.00;;;14.10;99.90;;;;;;5051314;28;20382;-68
2022/09/26 03:08:51;;;;;;;1.02;0.82;;;14.10;99.90;;;;;;5045417;28;20036;-68
2022/09/26 03:11:23;;;;;;;7.10;1.70;;;14.10;99.90;;;;;;5052498;28;20041;-68
2022/09/26 03:13:50;;;;;;;;;;;14.10;99.90;;;;;;5052891;28;20056;-69
2022/09/26 03:16:17;;;;;;;6.82;1.20;;;14.10;99.90;;;;;;5052379;28;19917;-67
2022/09/26 03:18:57;;;;;;;4.15;1.70;;;14.00;99.90;;;;;;5052004;28;20072;-68
2022/09/26 03:21:23;;;;;;;5.82;1.45;;;14.00;99.90;;;;;;5052455;28;20033;-69
2022/09/26 03:23:49;;;;;;;4.93;1.48;;;14.00;99.90;;;;;;5052245;28;20489;-68
2022/09/26 03:26:18;;;;;;;4.30;1.40;;;14.10;99.90;;;;;;5052461;28;20097;-68
2022/09/26 03:28:44;;;;;;;5.53;1.15;;;14.10;99.90;;;;;;5052113;28;20146;-68
2022/09/26 03:31:10;;;;;;;3.78;1.50;;;14.10;99.90;;;;;;5051970;28;20033;-68
2022/09/26 03:33:36;;;;;;;6.97;1.42;;;14.10;99.90;;;;;;5051574;28;20032;-68
2022/09/26 03:36:05;;;;;;;10.00;2.25;;;14.10;99.90;;;;;;5052418;28;20054;-68
2022/09/26 03:38:31;;;;;;;2.97;1.08;;;14.00;99.90;;;;;;5032295;28;20044;-68
2022/09/26 03:40:57;;;;;;;9.43;1.63;;;13.90;99.90;;;;;;5031758;28;20034;-68
2022/09/26 03:43:23;;;;;;;5.68;1.35;;;13.80;99.90;;;;;;5050821;28;20033;-67
2022/09/26 03:45:50;;;;;;;2.45;1.45;;;13.70;99.90;;;;;;5051838;28;20040;-67
2022/09/26 03:48:16;;;;;;;4.93;1.35;;;13.60;99.90;;;;;;5051882;28;20025;-67
2022/09/26 03:50:42;;;;;;;4.93;1.60;;;13.50;99.90;;;;;;5051842;28;20033;-67
2022/09/26 03:53:07;;;;;;;7.07;1.75;;;13.40;99.90;;;;;;5052089;28;20351;-67
2022/09/26 03:55:33;;;;;;;9.13;1.80;;;13.30;99.90;;;;;;5049764;28;20025;-67
2022/09/26 03:58:00;;;;;;;6.18;1.35;;;13.20;99.90;;;;;;5051745;28;20071;-67
2022/09/26 04:00:26;;;;;;;1.85;1.30;;;13.10;99.90;;;;;;5051428;28;20534;-67
2022/09/26 04:02:51;;;;;;;3.17;1.50;;;13.00;99.90;;;;;;5052011;28;20047;-68
2022/09/26 04:05:17;;;;;;;3.70;1.10;;;12.90;99.90;;;;;;5051172;28;20470;-68
2022/09/26 04:07:43;;;;;;;7.13;1.80;;;12.80;99.90;;;;;;5052068;28;20440;-69
2022/09/26 04:10:12;;;;;;;4.38;1.50;;;12.70;99.90;;;;;;5051164;28;20049;-69
2022/09/26 04:12:39;;;;;;;4.40;1.40;;;12.70;99.90;;;;;;5051709;28;20052;-69
2022/09/26 04:15:06;;;;;;;2.65;1.58;;;12.60;99.90;;;;;;5051385;28;20501;-68
2022/09/26 04:17:32;;;;;;;7.32;1.80;;;12.50;99.90;;;;;;5051640;28;20029;-68
2022/09/26 04:19:58;;;;;;;4.28;1.42;;;12.40;99.90;;;;;;5051463;28;20697;-69
2022/09/26 04:22:24;;;;;;;5.57;1.45;;;12.40;99.90;;;;;;5050983;28;20036;-69
2022/09/26 04:24:50;;;;;;;8.18;2.58;;;12.30;99.90;;;;;;5051716;28;20021;-69
2022/09/26 04:27:17;;;;;;;5.22;1.60;;;12.30;99.90;;;;;;5051190;28;20064;-68
2022/09/26 04:29:43;;;;;;;14.88;4.18;;;12.20;99.90;;;;;;5051351;28;20033;-69
2022/09/26 04:32:10;;;;;;;6.00;2.20;;;12.20;99.90;;;;;;5052516;28;20029;-69
2022/09/26 04:34:37;;;;;;;4.63;2.05;;;12.20;99.90;;;;;;5055015;28;20025;-68
2022/09/26 04:37:04;;;;;;;11.18;4.53;;;12.20;99.90;;;;;;5054921;28;20044;-69
2022/09/26 04:39:29;;;;;;;7.50;2.88;;;12.20;99.90;;;;;;5054978;28;20486;-69
2022/09/26 04:41:55;;;;;;;9.55;3.00;;;12.20;99.90;;;;;;5054947;28;20025;-69
2022/09/26 04:44:20;;;;;;;2.75;1.30;;;12.20;99.90;;;;;;5055532;28;20116;-68
2022/09/26 04:46:46;;;;;;;8.38;2.65;;;12.20;99.90;;;;;;5054941;28;20102;-68
2022/09/26 04:49:12;;;;;;;8.60;3.33;;;12.20;99.90;;;;;;5055366;28;20367;-68
2022/09/26 04:51:38;;;;;;;10.77;3.70;;;12.20;99.90;;;;;;5054354;28;20033;-69
2022/09/26 04:54:04;;;;;;;6.80;2.25;;;12.20;99.90;;;;;;5055159;28;20025;-67
2022/09/26 04:56:29;;;;;;;9.30;2.70;;;12.10;99.90;;;;;;5053924;28;20040;-67
2022/09/26 04:58:56;;;;;;;2.65;1.50;;;12.10;99.90;;;;;;5054391;28;20041;-68
2022/09/26 05:01:23;;;;;;;7.28;2.67;;;12.10;99.90;;;;;;5054685;28;20033;-68
2022/09/26 05:03:48;;;;;;;5.60;2.20;;;12.10;99.90;;;;;;5054631;28;20443;-68
2022/09/26 05:06:16;;;;;;;4.53;1.95;;;12.10;99.90;;;;;;5053521;28;20111;-68
2022/09/26 05:08:45;;;;;;;10.20;2.97;;;12.10;99.90;;;;;;5054944;28;20093;-68
2022/09/26 05:11:11;;;;;;;8.93;2.28;;;12.20;99.90;;;;;;5054636;28;20041;-67
2022/09/26 05:13:37;;;;;;;5.30;2.00;;;12.20;99.90;;;;;;5054837;28;20064;-68
2022/09/26 05:16:07;;;;;;;6.97;2.88;;;12.10;99.90;;;;;;5054593;28;20037;-67
2022/09/26 05:18:33;;;;;;;4.53;2.38;;;12.10;99.90;;;;;;5053833;28;20025;-68
2022/09/26 05:21:01;;;;;;;11.32;2.00;;;12.20;99.90;;;;;;5054941;28;20037;-68
2022/09/26 05:26:44;;;;;;;6.68;3.10;;;12.10;99.90;;;;;;5053866;28;20110;-69
2022/09/26 05:29:10;;;;;;;10.68;3.40;;;12.10;99.90;;;;;;5054024;28;20029;-69
2022/09/26 05:31:37;;;;;;;5.78;2.17;;;12.10;99.90;;;;;;5053891;28;20040;-68
2022/09/26 05:34:09;;;;;;;5.90;2.47;;;12.10;99.90;;;;;;5053631;28;20036;-68
2022/09/26 05:36:34;;;;;;;;;;;12.10;99.90;;;;;;5054217;28;20390;-68
2022/09/26 05:39:00;;;;;;;7.88;2.63;;;12.10;99.90;;;;;;5054295;28;19909;-68
2022/09/26 05:41:32;;;;;;;4.10;2.10;;;12.10;99.90;;;;;;5053957;28;20120;-69
2022/09/26 05:43:58;;;;;;;5.43;1.98;;;12.20;99.90;;;;;;5054245;28;20043;-68
2022/09/26 05:46:26;;;;;;;6.32;1.95;;;12.20;99.90;;;;;;5054206;28;20324;-68
2022/09/26 05:48:51;;;;;;;5.35;1.90;;;12.20;99.90;;;;;;5054024;28;20039;-69
2022/09/26 05:51:20;;;;;;;7.38;2.75;;;12.30;99.90;;;;;;5054289;28;20033;-69
2022/09/26 05:53:47;;;;;;;5.45;2.00;;;12.30;99.90;;;;;;5053751;28;20043;-69
2022/09/26 05:56:15;;;;;;;5.88;2.25;;;12.30;99.90;;;;;;5052917;28;20032;-69
2022/09/26 05:58:41;;;;;;;8.35;2.78;;;12.30;99.90;;;;;;5053329;28;20032;-68
2022/09/26 06:01:12;;;;;;;10.30;4.40;;;12.40;99.90;;;;;;5053452;28;20037;-69
2022/09/26 06:03:43;;;;;;;3.53;1.95;;;12.40;99.90;;;;;;5053533;28;20040;-69
2022/09/26 06:06:14;;;;;;;4.93;2.45;;;12.40;99.90;;;;;;5053173;28;20025;-69
2022/09/26 06:08:41;;;;;;;11.82;3.40;;;12.40;99.90;;;;;;5053634;28;20055;-68
2022/09/26 06:11:32;;;;;;;5.70;2.35;;;12.50;99.90;;;;;;5053187;28;20049;-69
2022/09/26 06:13:59;;;;;;;8.02;2.70;;;12.50;99.90;;;;;;5053076;28;20136;-69
2022/09/26 06:16:25;;;;;;;4.50;2.05;;;12.50;99.90;;;;;;5053707;28;20112;-67
2022/09/26 06:18:51;;;;;;;5.88;2.25;;;12.50;99.90;;;;;;5053369;28;20104;-67
2022/09/26 06:21:18;;;;;;;8.77;2.63;;;12.50;99.90;;;;;;5053502;28;20107;-67
2022/09/26 06:23:44;;;;;;;7.28;2.03;;;12.60;99.90;;;;;;5052874;28;20451;-68
2022/09/26 06:26:21;;;;;;;6.25;2.10;;;12.60;99.90;;;;;;5053448;28;20071;-68
2022/09/26 06:28:48;;;;;;;6.93;2.55;;;12.50;99.90;;;;;;5052656;28;20033;-68
2022/09/26 06:31:17;;;;;;;3.28;1.60;;;12.50;99.90;;;;;;5052213;28;20025;-67
2022/09/26 06:33:43;;;;;;;9.50;2.92;;;12.50;99.90;;;;;;5052001;28;21770;-68
2022/09/26 06:36:10;;;;;;;7.85;2.30;;;12.50;99.90;;;;;;5052871;28;20037;-68
2022/09/26 06:38:37;;;;;;;6.40;2.20;;;12.40;99.90;;;;;;5052593;28;20054;-68
2022/09/26 06:41:03;;;;;;;7.43;2.67;;;12.50;99.90;;;;;;5052790;28;20040;-67
2022/09/26 06:43:30;;;;;;;6.32;2.00;;;12.50;99.90;;;;;;5052917;28;20480;-68
2022/09/26 06:45:55;;;;;;;5.80;2.25;;;12.50;99.90;;;;;;5052420;28;20037;-67
2022/09/26 06:48:21;;;;;;;9.05;2.60;;;12.50;99.90;;;;;;5052885;28;20035;-67
2022/09/26 06:50:55;;;;;;;2.33;1.30;;;12.60;99.90;;;;;;5052399;28;20033;-68
2022/09/26 06:53:21;;;;;;;6.65;2.65;;;12.60;99.90;;;;;;5052805;28;20128;-67
2022/09/26 06:55:47;;;;;;;6.32;1.85;;;12.60;99.90;;;;;;5052233;28;20438;-68
2022/09/26 06:58:13;;;;;;;4.00;1.83;;;12.60;99.90;;;;;;5051913;28;20039;-68
2022/09/26 07:00:39;;;;;;;6.95;2.28;;;12.60;99.90;;;;;;5052316;28;20379;-68
2022/09/26 07:03:06;;;;;;;6.22;2.17;;;12.60;99.90;;;;;;5051371;28;20424;-67
2022/09/26 07:05:32;;;;;;;6.15;1.98;;;12.60;99.90;;;;;;5050805;28;20029;-68
2022/09/26 07:07:57;;;;;;;7.43;2.10;;;12.60;99.90;;;;;;5052658;28;20407;-68
2022/09/26 07:10:23;;;;;;;6.40;2.17;;;12.70;99.90;;;;;;5051757;28;20049;-68
2022/09/26 07:12:49;;;;;;;7.90;3.10;;;12.70;99.90;;;;;;5052397;28;20033;-69
2022/09/26 07:15:17;;;;;;;4.38;2.22;;;12.70;99.90;;;;;;5051888;28;20029;-68
2022/09/26 07:17:44;;;;;;;4.90;2.55;;;12.70;99.90;;;;;;5052581;28;20060;-68
2022/09/26 07:20:12;;;;;;;8.68;2.55;;;12.60;99.90;;;;;;5051759;28;20472;-68
2022/09/26 07:22:37;;;;;;;4.47;1.95;;;12.60;99.90;;;;;;5052627;28;20048;-68
2022/09/26 07:25:03;;;;;;;7.95;2.85;;;12.60;99.90;;;;;;5051779;28;20021;-67
2022/09/26 07:27:29;;;;;;;3.03;1.75;;;12.50;99.90;;;;;;5052548;28;20115;-67
2022/09/26 07:29:55;;;;;;;7.18;2.47;;;12.50;99.90;;;;;;5051461;28;20170;-67
2022/09/26 07:32:21;;;;;;;8.10;2.60;;;12.50;99.90;;;;;;5051941;28;20116;-68
2022/09/26 07:34:47;;;;;;;12.35;3.65;;;12.50;99.90;;;;;;5052161;28;20033;-67
2022/09/26 07:37:13;;;;;;;12.45;3.53;;;12.50;99.90;;;;;;5051556;28;20115;-69
2022/09/26 07:39:39;;;;;;;11.02;3.60;;;12.50;99.90;;;;;;5052298;28;20121;-68
2022/09/26 07:42:05;;;;;;;10.57;4.00;;;12.50;99.90;;;;;;5052164;28;20441;-69
2022/09/26 07:44:30;;;;;;;7.70;3.08;;;12.50;99.90;;;;;;5051423;28;20029;-68
2022/09/26 07:52:27;;;;;;;13.10;3.92;;;12.30;99.90;;;;;;5051175;28;20021;-69
2022/09/26 07:54:53;;;;;;;9.30;3.60;;;12.30;99.90;;;;;;5052391;28;20043;-69
2022/09/26 07:57:18;;;;;;;7.00;3.15;;;12.30;99.90;;;;;;5050849;28;20029;-68
2022/09/26 07:59:44;;;;;;;10.60;4.15;;;12.30;99.90;;;;;;5051889;28;20052;-68
2022/09/26 08:02:21;;;;;;;15.93;5.25;;;12.20;99.90;;;;;;5045990;28;20075;-69
2022/09/26 08:04:46;;;;;;;10.57;3.60;;;12.20;99.90;;;;;;5050701;28;20471;-68
2022/09/26 08:07:13;;;;;;;10.45;4.10;;;12.30;99.90;;;;;;5052849;28;20037;-69
2022/09/26 08:09:39;;;;;;;7.45;3.28;;;12.20;99.90;;;;;;5054068;28;20033;-69
2022/09/26 08:12:04;;;;;;;14.10;3.97;;;12.20;99.90;;;;;;5054363;28;20029;-69
2022/09/26 08:14:30;;;;;;;7.63;3.70;;;12.20;99.90;;;;;;5054071;28;20025;-68
2022/09/26 08:16:56;;;;;;;9.70;3.30;;;12.20;99.90;;;;;;5052597;28;20449;-69
2022/09/26 08:19:21;;;;;;;8.68;3.40;;;12.20;99.90;;;;;;5062358;28;20032;-68
2022/09/26 08:21:48;;;;;;;6.18;2.88;;;12.20;99.90;;;;;;5062822;28;20065;-68
2022/09/26 08:24:13;;;;;;;17.92;5.25;;;12.20;99.90;;;;;;5058899;28;20040;-69
2022/09/26 08:26:39;;;;;;;6.53;3.70;;;12.10;99.90;;;;;;5065901;28;20378;-69
2022/09/26 08:29:09;;;;;;;4.93;2.78;;;12.20;99.90;;;;;;5061430;28;20021;-68
2022/09/26 08:31:38;;;;;;;12.65;3.80;;;12.20;99.90;;;;;;5064074;28;20099;-68
2022/09/26 08:34:05;;;;;;;8.23;3.78;;;12.20;99.90;;;;;;5060197;28;20045;-70
2022/09/26 08:36:31;;;;;;;7.30;4.28;;;12.20;99.90;;;;;;5063658;28;20024;-70
2022/09/26 08:38:58;;;;;;;10.15;4.63;;;12.20;99.90;;;;;;5059921;28;20046;-69
2022/09/26 08:41:32;;;;;;;8.10;3.42;;;12.30;99.90;;;;;;5061187;28;20025;-70
2022/09/26 08:44:32;;;;;;;11.77;4.05;;;12.50;99.90;;;;;;5057864;28;20029;-70
2022/09/26 08:47:33;;;;;;;10.65;4.65;;;12.50;99.90;;;;;;5054752;28;20446;-70
2022/09/26 08:50:06;;;;;;;8.90;3.83;;;12.50;99.90;;;;;;5060113;28;20036;-70
2022/09/26 08:53:04;;;;;;;8.55;3.67;;;12.50;99.90;;;;;;5057931;28;20100;-70
2022/09/26 08:55:39;;;;;;;5.93;3.55;;;12.50;99.90;;;;;;5031575;28;20502;-69
2022/09/26 08:58:29;;;;;;;9.35;4.22;;;12.50;99.90;;;;;;5056529;28;20079;-69
2022/09/26 09:01:01;;;;;;;7.25;3.85;;;12.50;99.90;;;;;;5063018;28;20048;-69
2022/09/26 09:03:33;;;;;;;8.82;4.70;;;12.50;99.90;;;;;;5061381;28;20028;-69
2022/09/26 09:06:02;;;;;;;12.65;4.82;;;12.50;99.90;;;;;;5047129;28;20033;-70
2022/09/26 09:08:38;;;;;;;6.13;3.28;;;12.60;99.90;;;;;;5061382;28;20044;-70
2022/09/26 09:11:16;;;;;;;10.07;3.42;;;12.50;99.90;;;;;;4981124;28;2290437;-70
2022/09/26 09:13:56;;;;;;;8.63;4.22;;;12.50;99.90;;;;;;5058428;28;20078;-69
2022/09/26 09:16:50;;;;;;;7.18;3.80;;;12.50;99.90;;;;;;5061831;28;20058;-70
2022/09/26 09:19:37;;;;;;;7.72;4.43;;;12.50;99.90;;;;;;5063298;28;20033;-70
2022/09/26 09:22:27;;;;;;;8.40;4.18;;;12.50;99.90;;;;;;5059489;28;20414;-70
2022/09/26 09:25:11;;;;;;;8.75;4.50;;;12.50;99.90;;;;;;5058175;28;20024;-72
2022/09/26 09:27:43;;;;;;;10.55;4.65;;;12.50;99.90;;;;;;5058750;28;20058;-72
2022/09/26 09:30:16;;;;;;;12.07;5.20;;;12.50;99.90;;;;;;5058381;28;20464;-72
2022/09/26 09:33:04;;;;;;;9.57;4.05;;;12.50;99.90;;;;;;5058665;28;20379;-72
2022/09/26 09:35:50;;;;;;;8.77;4.47;;;12.60;99.90;;;;;;5055390;28;20044;-72
2022/09/26 09:38:19;;;;;;;8.05;5.00;;;12.60;99.90;;;;;;5060022;28;20033;-72
2022/09/26 09:41:12;;;;;;;5.03;3.10;;;12.60;99.90;;;;;;5062821;28;20159;-73
2022/09/26 09:43:53;;;;;;;7.88;3.88;;;12.60;99.90;;;;;;5058567;28;20037;-72
2022/09/26 09:46:29;;;;;;;7.60;3.92;;;12.70;99.90;;;;;;5053301;28;20091;-72
2022/09/26 09:49:09;;;;;;;6.38;3.50;;;12.70;99.90;;;;;;5062677;28;20037;-72
2022/09/26 09:51:43;;;;;;;3.95;2.85;;;12.70;99.90;;;;;;5061246;28;20038;-73
2022/09/26 09:54:15;;;;;;;6.57;3.88;;;12.70;99.90;;;;;;5062833;28;20025;-72
2022/09/26 09:56:40;;;;;;;7.80;3.92;;;12.70;99.90;;;;;;5058777;28;20465;-72
2022/09/26 09:59:24;;;;;;;8.10;3.97;;;12.70;99.90;;;;;;5063697;28;20033;-72
2022/09/26 10:02:18;;;;;;;9.52;4.00;;;12.80;99.90;;;;;;5061452;28;20490;-72
2022/09/26 10:04:49;;;;;;;9.55;4.53;;;12.90;99.90;;;;;;5054618;28;20485;-71
2022/09/26 10:07:15;;;;;;;6.07;3.70;;;12.90;99.90;;;;;;5053191;28;20052;-71
2022/09/26 10:09:45;;;;;;;8.07;4.25;;;12.90;99.90;;;;;;5069284;28;20037;-72
2022/09/26 10:12:16;;;;;;;6.78;3.40;;;13.00;99.90;;;;;;5070182;28;20060;-72
2022/09/26 10:15:03;;;;;;;7.45;3.30;;;13.10;99.90;;;;;;5051629;28;20036;-71
2022/09/26 10:17:29;;;;;;;6.93;3.03;;;13.30;99.90;;;;;;5054005;28;20025;-71
2022/09/26 10:19:55;;;;;;;6.63;2.83;;;13.50;99.90;;;;;;5051878;28;20051;-72
2022/09/26 10:22:34;;;;;;;9.30;3.25;;;13.60;99.90;;;;;;5052518;28;20104;-72
2022/09/26 10:25:15;;;;;;;9.18;3.33;;;13.60;99.90;;;;;;5062538;28;20052;-72
2022/09/26 10:27:49;;;;;;;9.68;4.15;;;13.70;99.90;;;;;;5062000;28;20033;-72
2022/09/26 10:30:17;;;;;;;10.75;3.60;;;13.80;99.90;;;;;;5053048;28;20017;-70
2022/09/26 10:32:50;;;;;;;5.57;3.67;;;14.20;99.90;;;;;;5052178;28;20032;-72
2022/09/26 10:35:25;;;;;;;11.80;3.67;;;14.60;99.90;;;;;;5046228;28;20033;-71
2022/09/26 10:38:01;;;;;;;7.75;2.65;;;15.00;99.90;;;;;;5044620;28;20022;-71
2022/09/26 10:40:44;;;;;;;6.25;2.28;;;15.50;99.90;;;;;;5050211;28;20509;-71
2022/09/26 10:43:33;;;;;;;11.07;2.25;;;16.20;99.90;;;;;;5060783;28;20506;-72
2022/09/26 10:46:12;;;;;;;10.60;2.00;;;16.80;99.90;;;;;;5047422;28;20443;-72
2022/09/26 10:48:54;;;;;;;10.60;2.30;;;17.10;99.90;;;;;;5052706;28;20079;-72
2022/09/26 10:51:25;;;;;;;9.52;2.10;;;17.20;99.90;;;;;;5051611;28;20029;-72
2022/09/26 10:53:58;;;;;;;10.93;2.15;;;17.20;99.90;;;;;;5051127;28;20036;-72
2022/09/26 10:56:28;;;;;;;13.85;2.28;;;17.20;99.90;;;;;;5047327;28;20089;-73
2022/09/26 10:59:04;;;;;;;9.32;2.20;;;17.00;99.90;;;;;;5052455;28;20029;-72
2022/09/26 11:01:31;;;;;;;11.88;2.55;;;16.90;99.90;;;;;;5052120;28;20036;-72
2022/09/26 11:04:10;;;;;;;12.50;3.38;;;16.90;99.90;;;;;;5052419;28;20427;-72
2022/09/26 11:06:45;;;;;;;14.98;2.75;;;16.90;99.90;;;;;;5052035;28;20033;-72
2022/09/26 11:09:19;;;;;;;13.15;2.88;;;16.80;99.90;;;;;;5049379;28;20163;-72
2022/09/26 11:11:45;;;;;;;13.35;2.35;;;16.80;99.90;;;;;;5052515;28;20049;-72
2022/09/26 11:14:23;;;;;;;10.77;2.22;;;16.80;99.90;;;;;;5051060;28;20091;-72
2022/09/26 11:16:51;;;;;;;11.00;2.40;;;16.80;99.90;;;;;;5052342;28;20035;-72
2022/09/26 11:19:25;;;;;;;16.02;2.72;;;16.90;99.90;;;;;;5050659;28;20056;-73
2022/09/26 11:22:18;;;;;;;16.27;3.30;;;16.90;99.90;;;;;;5052477;28;20017;-72
2022/09/26 11:25:09;;;;;;;11.05;2.20;;;16.90;99.90;;;;;;5045196;28;20037;-72
2022/09/26 11:27:49;;;;;;;12.40;2.50;;;16.90;99.90;;;;;;5042760;28;20017;-71
2022/09/26 11:30:19;;;;;;;8.18;1.98;;;16.90;99.90;;;;;;5057323;28;20025;-72
2022/09/26 11:32:51;;;;;;;9.82;2.33;;;16.90;99.90;;;;;;5060127;28;20132;-73
2022/09/26 11:35:32;;;;;;;11.40;2.00;;;16.90;99.90;;;;;;5055523;28;20021;-72
2022/09/26 11:38:22;;;;;;;8.80;2.17;;;17.00;99.90;;;;;;5051353;28;20041;-72
2022/09/26 11:41:15;;;;;;;13.65;2.40;;;17.20;99.90;;;;;;5060114;28;20048;-73
2022/09/26 11:43:46;;;;;;;12.20;1.98;;;17.30;99.90;;;;;;5055866;28;20409;-72
2022/09/26 11:46:46;;;;;;;13.43;2.30;;;17.40;99.90;;;;;;5056255;28;20034;-72
2022/09/26 11:49:21;;;;;;;11.23;2.05;;;17.40;99.90;;;;;;5055933;28;20037;-73
2022/09/26 11:52:08;;;;;;;12.10;2.22;;;17.40;99.90;;;;;;5062651;28;20629;-73
2022/09/26 11:54:57;;;;;;;10.73;1.80;;;17.50;99.90;;;;;;5058276;28;20021;-74
2022/09/26 11:57:50;;;;;;;11.48;2.35;;;17.60;99.90;;;;;;5056526;28;20024;-72
2022/09/26 12:00:26;;;;;;;10.63;2.25;;;17.60;99.90;;;;;;5056719;28;20029;-72
2022/09/26 12:03:19;;;;;;;18.58;2.50;;;17.50;99.90;;;;;;5056299;28;20024;-72
2022/09/26 12:06:01;;;;;;;13.90;2.47;;;17.40;99.90;;;;;;5047792;28;20029;-73
2022/09/26 12:08:49;;;;;;;;;;;17.20;99.90;;;;;;5059516;28;20371;-72
2022/09/26 12:11:44;;;;;;;12.65;2.25;;;17.10;99.90;;;;;;5058371;28;19978;-73
2022/09/26 12:14:34;;;;;;;12.20;2.45;;;16.90;99.90;;;;;;5056391;28;20325;-73
2022/09/26 12:17:16;;;;;;;15.90;2.65;;;16.70;99.90;;;;;;5048414;28;20036;-73
2022/09/26 12:20:01;;;;;;;14.57;2.33;;;16.50;99.90;;;;;;5049870;28;20033;-74
2022/09/26 12:22:37;;;;;;;15.20;2.35;;;16.40;99.90;;;;;;5048276;28;20037;-73
2022/09/26 12:25:15;;;;;;;14.60;2.17;;;16.10;99.90;;;;;;5049982;28;20067;-72
2022/09/26 12:27:59;;;;;;;10.88;2.30;;;15.90;99.90;;;;;;5050037;28;20025;-73
2022/09/26 12:31:06;;;;;;;14.63;2.80;;;15.80;99.90;;;;;;5049851;28;20033;-74
2022/09/26 12:34:11;;;;;;;12.50;2.60;;;15.70;99.90;;;;;;5058428;28;20393;-73
2022/09/26 12:36:49;;;;;;;15.18;2.83;;;15.50;99.90;;;;;;5070683;28;20017;-73
2022/09/26 12:39:46;;;;;;;16.50;3.08;;;15.40;99.90;;;;;;5059219;28;20032;-73
2022/09/26 12:42:34;;;;;;;11.10;2.55;;;15.20;99.90;;;;;;5063029;28;20120;-72
2022/09/26 12:45:08;;;;;;;11.40;2.47;;;15.10;99.90;;;;;;5060439;28;20033;-73
2022/09/26 12:47:59;;;;;;;13.32;3.03;;;15.10;99.90;;;;;;5051927;28;20076;-73
2022/09/26 12:50:48;;;;;;;18.90;3.28;;;15.10;99.90;;;;;;5052210;28;20078;-73
2022/09/26 12:53:44;;;;;;;18.58;3.40;;;15.10;99.90;;;;;;5043675;28;20115;-74
2022/09/26 12:56:22;;;;;;;21.15;3.10;;;15.10;99.90;;;;;;5055451;28;20347;-74
2022/09/26 12:59:24;;;;;;;13.90;2.80;;;15.10;99.90;;;;;;5055068;28;20120;-72
2022/09/26 13:02:02;;;;;;;13.13;2.97;;;15.00;99.90;;;;;;5055404;28;20379;-73
2022/09/26 13:04:41;;;;;;;17.02;3.03;;;15.10;99.90;;;;;;5054586;28;20033;-72
2022/09/26 13:07:18;;;;;;;16.27;3.00;;;15.00;99.90;;;;;;5061768;28;20032;-72
2022/09/26 13:10:03;;;;;;;15.98;2.85;;;15.00;99.90;;;;;;5065828;28;20029;-72
2022/09/26 13:13:01;;;;;;;12.18;2.67;;;15.00;99.90;;;;;;5075311;28;20029;-72
2022/09/26 13:15:40;;;;;;;16.48;3.10;;;15.20;99.90;;;;;;5065894;28;20075;-73
2022/09/26 13:18:25;;;;;;;21.60;3.85;;;15.50;99.90;;;;;;5063277;28;20104;-73
2022/09/26 13:20:56;;;;;;;18.10;3.25;;;15.80;99.90;;;;;;5061282;28;20509;-74
2022/09/26 13:23:32;;;;;;;17.98;3.42;;;16.00;99.90;;;;;;5063679;28;20024;-73
2022/09/26 13:26:03;;;;;;;16.90;3.00;;;16.30;99.90;;;;;;5060510;28;20033;-73